Latest Weather Observations for Point Stuart

IDD60901

Issued at 1:15 pm CST Thursday 23 October 2014 (issued every 10 minutes, with the page automatically refreshed every 10 minutes)

About weather observations | Map of Darwin area stations | Latest observations for Darwin area | Other Formats
Station Details ID: 014254 Name: POINT STUART Lat: -12.24 Lon: 131.88 Height: 1.0 m
Data from the previous 72 hours. | See also: Recent months for locations in Northern Territory
Date/Time
CST
Tmp

°C
App
Tmp
°C
Dew
Point
°C
Rel
Hum
%
Delta-T

°C
Wind Press
QNH
hPa
Press
MSL
hPa
Rain
since
9 am
mm
Dir
 
Spd
km/h
Gust
km/h
Spd
kts
Gust
kts
23/01:00pm 32.6 32.9 19.5 46 8.6 N 17 26 9 14 1011.6 - 0.0
23/12:30pm 32.2 33.3 20.5 50 7.8 N 15 26 8 14 1012.2 - 0.0
23/12:00pm 31.6 32.7 20.5 51 7.4 NNE 15 22 8 12 1012.6 1012.6 0.0
23/11:30am 32.0 32.2 18.6 45 8.7 NE 15 26 8 14 1013.1 - 0.0
23/11:00am 31.8 32.1 18.7 45 8.5 NE 15 24 8 13 1013.5 - 0.0
23/10:00am 30.0 31.4 21.1 59 5.9 NE 15 24 8 13 1014.4 - 0.0
23/09:30am 29.7 31.3 21.4 61 5.6 E 15 24 8 13 1014.4 - 0.0
23/09:00am 29.4 31.2 21.9 64 5.1 E 15 20 8 11 1014.6 1014.6 0.0
23/08:30am 29.5 31.0 22.0 64 5.1 E 17 22 9 12 1014.6 - 0.0
23/08:00am 28.5 29.5 21.8 67 4.5 E 19 22 10 12 1014.5 - 0.0
23/07:30am 26.4 29.2 22.3 78 2.8 ESE 11 13 6 7 1014.1 - 0.0
23/07:00am 24.9 27.5 22.0 84 1.9 SE 11 13 6 7 1013.7 - 0.0
23/06:30am 23.7 26.4 21.4 87 1.5 SE 9 11 5 6 1013.5 - 0.0
23/06:00am 24.1 26.8 21.4 85 1.8 SE 9 13 5 7 1013.2 1013.2 0.0
23/05:30am 24.6 27.9 20.7 79 2.5 ENE 4 7 2 4 1012.8 - 0.0
23/05:00am 25.2 28.2 21.3 79 2.6 NE 7 9 4 5 1012.4 - 0.0
23/04:30am 25.8 28.7 21.0 75 3.2 NNE 7 11 4 6 1012.3 - 0.0
23/04:00am 26.4 28.8 20.9 72 3.6 NNE 9 17 5 9 1012.3 - 0.0
23/03:30am 26.2 28.2 20.7 71 3.6 NE 11 19 6 10 1012.3 - 0.0
23/03:00am 26.2 28.4 20.5 71 3.7 NNE 9 13 5 7 1012.2 1012.2 0.0
23/02:30am 26.5 28.5 20.8 71 3.8 NE 11 17 6 9 1012.7 - 0.0
23/02:00am 27.0 29.2 21.1 70 3.9 NE 11 15 6 8 1013.1 - 0.0
23/01:30am 26.7 28.9 21.2 72 3.6 NE 11 15 6 8 1013.3 - 0.0
23/01:00am 26.2 29.2 21.2 74 3.3 NE 7 13 4 7 1013.6 - 0.0
23/12:30am 26.4 29.3 20.7 71 3.7 NNE 6 9 3 5 1013.8 - 0.0
23/12:00am 26.7 28.9 20.5 69 4.1 NE 9 13 5 7 1013.9 1013.9 0.0
 
Date/Time
CST
Tmp

°C
App
Tmp
°C
Dew
Point
°C
Rel
Hum
%
Delta-T

°C
Wind Press
QNH
hPa
Press
MSL
hPa
Rain
since
9 am
mm
Dir
 
Spd
km/h
Gust
km/h
Spd
kts
Gust
kts
22/11:30pm 27.1 29.5 20.9 69 4.1 NNE 9 15 5 8 1014.0 - 0.0
22/11:00pm 27.4 29.9 21.0 68 4.2 NNE 9 15 5 8 1013.7 - 0.0
22/10:30pm 27.6 29.4 20.4 65 4.7 NNE 11 17 6 9 1013.7 - 0.0
22/10:00pm 27.9 29.0 20.5 64 4.9 NNE 15 24 8 13 1013.0 - 0.0
22/09:30pm 28.1 29.0 20.9 65 4.8 NNE 17 28 9 15 1012.7 - 0.0
22/09:00pm 28.4 28.8 19.9 60 5.6 NNE 17 28 9 15 1012.3 1012.3 0.0
22/08:30pm 28.6 29.0 19.8 59 5.7 NNE 17 28 9 15 1012.0 - 0.0
22/08:00pm 28.4 31.1 22.9 72 3.7 N 13 24 7 13 1011.6 - 0.0
22/07:30pm 28.2 30.8 23.3 75 3.4 N 15 22 8 12 1011.3 - 0.0
22/07:00pm 28.4 31.1 23.5 75 3.4 N 15 24 8 13 1011.0 - 0.0
22/06:30pm 28.9 31.4 22.4 68 4.4 N 13 20 7 11 1010.7 - 0.0
22/06:00pm 30.3 32.4 22.5 63 5.3 N 15 24 8 13 1010.2 1010.2 0.0
22/05:30pm 31.5 33.3 21.1 54 7.0 N 13 19 7 10 1009.7 - 0.0
22/05:00pm 32.8 33.9 21.3 50 7.8 NNW 17 24 9 13 1009.5 - 0.0
22/04:30pm 32.7 34.1 21.9 53 7.3 NNW 17 24 9 13 1009.3 - 0.0
22/04:00pm 33.5 34.3 21.3 48 8.2 NW 19 26 10 14 1009.4 - 0.0
22/03:30pm 33.7 34.8 21.2 48 8.4 NNW 17 22 9 12 1009.5 - 0.0
22/03:00pm 33.8 35.1 21.6 49 8.3 NNW 17 24 9 13 1009.9 1009.9 0.0
22/02:30pm 33.4 35.1 20.9 48 8.4 N 13 22 7 12 1010.3 - 0.0
22/02:00pm 33.1 34.2 21.3 50 8.0 N 17 26 9 14 1010.8 - 0.0
22/01:30pm 32.2 33.2 21.1 52 7.5 N 17 28 9 15 1011.5 - 0.0
22/01:00pm 31.9 33.2 21.7 54 6.9 N 17 28 9 15 1012.2 - 0.0
22/12:30pm 31.9 33.8 22.0 55 6.7 NNE 15 24 8 13 1012.9 - 0.0
22/12:00pm 32.4 33.4 21.0 51 7.6 NE 17 26 9 14 1013.5 1013.5 0.0
22/11:30am 32.4 33.2 21.3 52 7.5 NE 19 30 10 16 1014.0 - 0.0
22/11:00am 31.9 32.8 20.8 51 7.4 ENE 17 26 9 14 1014.4 - 0.0
22/10:30am 30.4 31.9 21.2 58 6.2 E 15 24 8 13 1014.9 - 0.0
22/10:00am 30.2 32.5 22.1 62 5.5 E 13 24 7 13 1015.1 - 0.0
22/09:30am 30.8 33.5 22.9 62 5.4 E 13 20 7 11 1015.2 - 0.0
22/09:00am 30.2 32.8 22.6 63 5.2 ENE 13 19 7 10 1015.2 1015.2 0.0
22/08:30am 28.2 30.7 22.4 71 3.9 SE 13 17 7 9 1014.9 - 0.0
22/08:00am 28.6 32.2 23.1 72 3.8 ESE 9 15 5 8 1014.4 - 0.0
22/07:30am 26.0 31.1 24.0 89 1.4 ESE 4 9 2 5 1014.1 - 0.0
22/07:00am 23.4 27.3 22.6 95 0.5 SE 6 7 3 4 1014.0 - 0.0
22/06:30am 22.5 26.6 21.5 94 0.7 ENE 2 6 1 3 1013.4 - 0.0
22/06:00am 22.7 27.2 21.5 93 0.8 CALM 0 0 0 0 1013.1 1013.1 0.0
22/05:30am 23.2 27.0 21.6 91 1.1 S 4 7 2 4 1013.2 - 0.0
22/05:00am 23.2 26.4 21.3 89 1.2 S 6 7 3 4 1013.0 - 0.0
22/04:30am 23.3 25.7 20.8 86 1.6 WSW 9 11 5 6 1012.7 - 0.0
22/04:00am 24.6 29.3 21.9 85 1.8 CALM 0 0 0 0 1012.9 - 0.0
22/03:30am 25.1 28.7 22.0 83 2.1 SE 6 7 3 4 1013.1 - 0.0
22/03:00am 25.3 28.4 22.2 83 2.1 SE 9 11 5 6 1013.2 1013.2 0.0
22/02:30am 24.8 29.2 21.3 81 2.3 CALM 0 0 0 0 1013.3 - 0.0
22/02:00am 25.4 29.5 22.3 83 2.1 N 4 6 2 3 1013.7 - 0.0
22/01:30am 25.1 28.9 21.6 81 2.3 NE 4 7 2 4 1014.0 - 0.0
22/01:00am 25.4 29.8 21.3 78 2.7 CALM 0 0 0 0 1014.0 - 0.0
22/12:30am 26.0 29.6 22.1 79 2.6 N 6 7 3 4 1014.3 - 0.0
22/12:00am 26.3 29.8 22.2 78 2.8 N 7 11 4 6 1014.3 1014.3 0.0
 
Date/Time
CST
Tmp

°C
App
Tmp
°C
Dew
Point
°C
Rel
Hum
%
Delta-T

°C
Wind Press
QNH
hPa
Press
MSL
hPa
Rain
since
9 am
mm
Dir
 
Spd
km/h
Gust
km/h
Spd
kts
Gust
kts
21/11:30pm 26.7 30.0 21.9 75 3.2 N 7 11 4 6 1014.5 - 0.0
21/11:00pm 27.1 30.3 22.3 75 3.2 N 9 15 5 8 1014.6 - 0.0
21/10:30pm 27.4 30.2 22.3 73 3.4 NNE 11 20 6 11 1014.4 - 0.0
21/10:00pm 27.5 29.2 22.4 73 3.4 NNE 17 26 9 14 1013.9 - 0.0
21/09:30pm 27.7 29.3 22.2 72 3.7 NNE 17 30 9 16 1013.5 - 0.0
21/09:00pm 28.0 29.2 21.5 67 4.3 NNE 17 26 9 14 1013.1 1013.1 0.0
21/08:30pm 28.4 28.9 19.3 57 5.9 NNE 15 26 8 14 1012.9 - 0.0
21/08:00pm 28.3 31.2 23.2 74 3.5 N 13 20 7 11 1012.5 - 0.0
21/07:30pm 28.1 30.9 23.0 74 3.5 N 13 20 7 11 1012.3 - 0.0
21/07:00pm 28.3 30.4 22.5 71 3.9 N 15 20 8 11 1011.8 - 0.0
21/06:30pm 29.0 30.9 22.0 66 4.7 N 15 28 8 15 1011.6 - 0.0
21/06:00pm 30.5 31.8 19.2 51 7.4 N 11 17 6 9 1011.1 1011.1 0.0
21/05:30pm 31.0 31.3 18.0 45 8.3 N 13 22 7 12 1010.9 - 0.0
21/05:00pm 31.9 32.0 19.2 47 8.3 NNW 17 26 9 14 1010.3 - 0.0
21/04:30pm 33.5 32.7 18.0 39 10.0 NW 19 24 10 13 1010.3 - 0.0
21/04:00pm 33.7 33.1 15.7 34 11.3 NNW 13 22 7 12 1010.3 - 0.0
21/03:30pm 33.4 31.7 13.5 30 12.0 N 15 26 8 14 1010.3 - 0.0
21/03:00pm 33.4 32.8 17.5 38 10.2 N 17 24 9 13 1010.7 1010.7 0.0
21/02:30pm 33.5 32.8 16.4 36 10.8 N 15 24 8 13 1011.2 - 0.0
21/02:00pm 33.2 32.9 16.5 36 10.6 N 13 24 7 13 1011.7 - 0.0
21/01:30pm 32.9 32.5 17.1 39 10.1 N 15 22 8 12 1012.4 - 0.0
21/01:00pm 33.0 32.5 16.8 38 10.3 N 15 26 8 14 1013.0 - 0.0
21/12:30pm 33.3 32.7 16.6 36 10.6 NNE 15 22 8 12 1013.8 - 0.0
21/12:00pm 33.9 31.7 13.4 29 12.4 NE 17 26 9 14 1014.5 1014.5 0.0
21/11:30am 32.6 31.2 15.6 36 10.6 NE 17 28 9 15 1014.9 - 0.0
21/11:00am 32.1 30.7 15.6 37 10.3 NE 17 22 9 12 1015.3 - 0.0
21/10:30am 30.9 30.1 17.2 43 8.7 E 17 24 9 13 1015.6 - 0.0
21/10:00am 30.4 30.2 18.5 49 7.7 E 17 24 9 13 1015.9 - 0.0
21/09:30am 30.1 29.8 19.2 52 7.1 E 19 28 10 15 1016.0 - 0.0
21/09:00am 29.5 29.8 20.4 58 6.0 E 19 26 10 14 1015.9 1015.9 0.0
21/08:30am 29.0 28.7 20.4 59 5.7 ESE 22 26 12 14 1015.6 - 0.0
21/08:00am 29.0 27.9 18.7 53 6.6 ENE 22 30 12 16 1015.2 - 0.0
21/07:30am 28.3 28.7 20.6 63 5.1 ENE 19 24 10 13 1014.7 - 0.0
21/07:00am 26.9 29.8 22.5 77 3.0 NE 11 20 6 11 1014.3 - 0.0
21/06:30am 25.4 28.2 21.5 79 2.6 NE 9 13 5 7 1014.0 - 0.0
21/06:00am 25.0 28.1 22.1 84 1.9 NE 9 11 5 6 1013.6 1013.6 0.0
21/05:30am 24.4 27.6 21.3 83 2.0 NE 6 7 3 4 1013.5 - 0.0
21/05:00am 23.9 27.9 21.4 86 1.6 ENE 2 6 1 3 1013.5 - 0.0
21/04:30am 23.7 27.9 21.0 85 1.8 CALM 0 0 0 0 1013.5 - 0.0
21/04:00am 24.3 27.2 20.6 80 2.4 S 6 9 3 5 1013.4 - 0.0
21/03:30am 26.5 29.7 22.3 78 2.8 ENE 9 11 5 6 1013.3 - 0.0
21/03:00am 26.9 29.3 22.3 76 3.1 NE 13 17 7 9 1013.3 1013.3 0.0
21/02:30am 27.3 29.9 22.7 76 3.1 NE 13 17 7 9 1013.5 - 0.0
21/02:00am 27.2 30.4 22.4 75 3.2 NE 9 13 5 7 1013.8 - 0.0
21/01:30am 27.3 30.3 22.0 73 3.6 NE 9 13 5 7 1014.0 - 0.0
21/01:00am 26.9 28.8 21.4 72 3.7 ENE 13 17 7 9 1014.2 - 0.0
21/12:30am 26.6 29.0 20.9 71 3.8 NE 9 11 5 6 1014.4 - 0.0
21/12:00am 26.9 28.9 20.7 69 4.1 NE 11 17 6 9 1014.4 1014.4 0.0
 
Date/Time
CST
Tmp

°C
App
Tmp
°C
Dew
Point
°C
Rel
Hum
%
Delta-T

°C
Wind Press
QNH
hPa
Press
MSL
hPa
Rain
since
9 am
mm
Dir
 
Spd
km/h
Gust
km/h
Spd
kts
Gust
kts
20/11:30pm 27.1 30.0 21.8 73 3.5 NE 9 15 5 8 1014.3 - 0.0
20/11:00pm 26.7 29.9 21.7 74 3.3 NNE 7 13 4 7 1014.3 - 0.0
20/10:30pm 27.4 29.3 22.1 73 3.6 NNE 15 24 8 13 1013.7 - 0.0
20/10:00pm 27.5 29.3 21.8 71 3.8 NNE 15 24 8 13 1013.2 - 0.0
20/09:30pm 27.7 29.8 22.4 73 3.6 NNE 15 26 8 14 1012.8 - 0.0
20/09:00pm 27.9 29.7 22.6 73 3.6 NNE 17 26 9 14 1012.4 1012.4 0.0
20/08:30pm 28.2 29.3 22.0 69 4.2 NNE 19 28 10 15 1012.0 - 0.0
20/08:00pm 28.4 30.5 21.7 67 4.5 NNE 13 20 7 11 1011.7 - 0.0
20/07:30pm 28.8 29.7 20.8 62 5.3 NNE 17 26 9 14 1011.3 - 0.0
20/07:00pm 29.1 30.4 20.8 61 5.5 NNE 15 24 8 13 1010.9 - 0.0
20/06:30pm 29.5 30.3 20.6 58 5.9 NNE 17 26 9 14 1010.4 - 0.0
20/06:00pm 30.0 30.1 20.0 55 6.6 NNE 19 30 10 16 1009.8 1009.8 0.0
20/05:30pm 30.8 30.7 18.8 48 7.8 N 17 30 9 16 1009.5 - 0.0
20/05:00pm 31.4 31.2 18.4 46 8.4 N 17 26 9 14 1009.3 - 0.0
20/04:30pm 33.2 31.6 12.8 29 12.2 N 13 20 7 11 1009.1 - 0.0
20/04:00pm 33.8 33.1 15.3 33 11.5 N 13 20 7 11 1009.2 - 0.0
20/03:30pm 33.3 32.0 14.8 32 11.4 N 15 24 8 13 1009.5 - 0.0
20/03:00pm 33.3 32.0 15.8 35 11.0 N 17 24 9 13 1009.8 1009.8 0.0
20/02:30pm 33.6 32.7 16.9 37 10.6 NNE 17 30 9 16 1010.2 - 0.0
20/02:00pm 33.3 33.3 19.0 42 9.4 N 17 24 9 13 1010.8 - 0.0
20/01:30pm 32.0 32.3 20.3 50 7.8 N 19 28 10 15 1011.6 - 0.0

Latest Capital City Observations: Canberra | Sydney | Melbourne | Brisbane | Adelaide | Perth | Hobart | Darwin

Other Formats:

Comma delimited format used in spreadsheet applications
http://www.bom.gov.au/fwo/IDD60901/IDD60901.94127.axf

JavaScript Object Notation format (JSON) in row-major order
http://www.bom.gov.au/fwo/IDD60901/IDD60901.94127.json